Time;durP1;ratioP1;P1;durP2;ratioP2;P2;SDS_P1;SDS_P2;PMS_P1;PMS_P2;Temp;Humidity;BMP_temperature;BMP_pressure;BME280_temperature;BME280_humidity;BME280_pressure;Samples;Min_cycle;Max_cycle;Signal;HPM_P1;HPM_P2
2021/12/21 00:01:57;;;;;;;5.75;1.92;;;;;;;;;;5036123;28;20215;-55
2021/12/21 00:04:23;;;;;;;4.15;1.90;;;;;;;;;;5028239;28;20037;-54
2021/12/21 00:06:49;;;;;;;5.30;2.53;;;;;;;;;;5032947;28;20035;-52
2021/12/21 00:09:15;;;;;;;6.13;2.30;;;;;;;;;;5035815;28;20438;-51
2021/12/21 00:11:41;;;;;;;5.65;2.53;;;;;;;;;;5028387;28;20032;-54
2021/12/21 00:14:18;;;;;;;5.35;2.45;;;;;;;;;;5038419;28;20037;-54
2021/12/21 00:17:02;;;;;;;6.53;3.00;;;;;;;;;;5038188;28;20060;-52
2021/12/21 00:19:52;;;;;;;4.45;2.55;;;;;;;;;;5036718;28;20025;-53
2021/12/21 00:22:55;;;;;;;4.22;2.50;;;;;;;;;;5030710;28;20448;-55
2021/12/21 00:25:10;;;;;;;4.72;2.40;;;;;;;;;;5036845;28;20041;-54
2021/12/21 00:27:36;;;;;;;7.00;2.50;;;;;;;;;;5035571;28;20036;-55
2021/12/21 00:30:03;;;;;;;5.80;2.63;;;;;;;;;;5027855;28;20030;-53
2021/12/21 00:32:29;;;;;;;6.30;2.70;;;;;;;;;;5031104;28;20624;-51
2021/12/21 00:34:55;;;;;;;5.50;2.78;;;;;;;;;;5031110;28;20053;-51
2021/12/21 00:37:22;;;;;;;5.05;3.05;;;;;;;;;;5026185;28;20811;-52
2021/12/21 00:39:49;;;;;;;4.75;2.13;;;;;;;;;;5034868;28;20026;-52
2021/12/21 00:42:15;;;;;;;5.22;2.53;;;;;;;;;;5034478;28;20096;-50
2021/12/21 00:44:41;;;;;;;5.50;2.42;;;;;;;;;;5029779;28;20060;-54
2021/12/21 00:47:07;;;;;;;5.20;2.95;;;;;;;;;;5024553;28;20089;-54
2021/12/21 00:49:35;;;;;;;4.20;2.72;;;;;;;;;;5024540;28;20113;-51
2021/12/21 00:52:01;;;;;;;4.43;2.10;;;;;;;;;;5030404;28;20093;-51
2021/12/21 00:54:27;;;;;;;5.20;3.10;;;;;;;;;;5026684;28;20053;-52
2021/12/21 00:56:53;;;;;;;7.32;2.83;;;;;;;;;;5031318;28;20033;-54
2021/12/21 00:59:19;;;;;;;7.72;3.47;;;;;;;;;;5037239;28;20037;-52
2021/12/21 01:01:45;;;;;;;5.68;2.95;;;;;;;;;;5033818;28;20503;-51
2021/12/21 01:04:26;;;;;;;5.85;3.20;;;;;;;;;;5034898;28;20029;-55
2021/12/21 01:07:08;;;;;;;6.18;2.55;;;;;;;;;;5022877;28;20029;-51
2021/12/21 01:12:05;;;;;;;8.70;3.40;;;;;;;;;;5033477;28;20113;-53
2021/12/21 01:15:02;;;;;;;6.00;3.20;;;;;;;;;;5031933;28;20068;-55
2021/12/21 01:17:30;;;;;;;8.68;3.15;;;;;;;;;;5033697;28;20474;-55
2021/12/21 01:20:06;;;;;;;9.63;3.58;;;;;;;;;;5037488;28;20417;-53
2021/12/21 01:23:11;;;;;;;12.75;4.20;;;;;;;;;;5032473;28;20521;-53
2021/12/21 01:31:27;;;;;;;10.60;3.78;;;;;;;;;;5031657;28;20037;-53
2021/12/21 01:36:42;;;;;;;7.80;3.80;;;;;;;;;;5035095;28;20091;-50
2021/12/21 01:39:30;;;;;;;5.97;3.40;;;;;;;;;;5037403;28;20049;-56
2021/12/21 01:42:04;;;;;;;8.38;3.60;;;;;;;;;;5031430;28;20049;-56
2021/12/21 01:49:59;;;;;;;9.60;3.90;;;;;;;;;;5034102;28;20072;-55
2021/12/21 01:52:26;;;;;;;7.53;3.75;;;;;;;;;;5026815;28;20041;-56
2021/12/21 01:54:53;;;;;;;7.40;4.25;;;;;;;;;;5034688;28;20120;-55
2021/12/21 01:57:19;;;;;;;11.55;4.05;;;;;;;;;;5033529;28;20040;-56
2021/12/21 01:59:46;;;;;;;8.38;3.63;;;;;;;;;;5037702;28;20535;-56
2021/12/21 02:02:14;;;;;;;9.32;4.15;;;;;;;;;;5030940;28;20025;-55
2021/12/21 02:04:41;;;;;;;7.25;4.22;;;;;;;;;;5034071;28;20029;-55
2021/12/21 02:07:07;;;;;;;7.88;3.83;;;;;;;;;;5024908;28;20041;-52
2021/12/21 02:09:40;;;;;;;12.68;4.32;;;;;;;;;;5031876;28;20029;-56
2021/12/21 02:12:07;;;;;;;9.48;3.60;;;;;;;;;;5034334;28;20504;-56
2021/12/21 02:14:33;;;;;;;12.13;4.63;;;;;;;;;;5029342;28;20064;-56
2021/12/21 02:20:54;;;;;;;7.10;4.05;;;;;;;;;;5031079;28;20052;-55
2021/12/21 02:23:04;;;;;;;10.20;4.18;;;;;;;;;;5024652;28;20041;-54
2021/12/21 02:25:41;;;;;;;7.85;4.40;;;;;;;;;;5027716;28;20037;-56
2021/12/21 02:30:45;;;;;;;12.00;4.63;;;;;;;;;;5017750;28;20109;-54
2021/12/21 02:33:12;;;;;;;13.38;4.57;;;;;;;;;;5027785;28;20022;-56
2021/12/21 02:35:38;;;;;;;10.23;5.25;;;;;;;;;;5030163;28;20049;-55
2021/12/21 02:38:04;;;;;;;12.15;4.13;;;;;;;;;;5022543;28;20067;-55
2021/12/21 02:40:31;;;;;;;9.73;4.25;;;;;;;;;;5031508;28;20503;-56
2021/12/21 02:42:57;;;;;;;8.07;4.00;;;;;;;;;;5028847;28;20032;-53
2021/12/21 02:45:23;;;;;;;10.27;4.75;;;;;;;;;;5033139;28;20034;-56
2021/12/21 02:47:49;;;;;;;11.40;4.70;;;;;;;;;;5026755;28;20018;-56
2021/12/21 02:50:15;;;;;;;9.38;4.25;;;;;;;;;;5036326;28;20149;-56
2021/12/21 02:52:41;;;;;;;8.75;4.43;;;;;;;;;;5029985;28;20114;-52
2021/12/21 02:55:07;;;;;;;11.70;5.00;;;;;;;;;;5035853;28;20021;-55
2021/12/21 02:57:33;;;;;;;9.25;4.60;;;;;;;;;;5028652;28;20112;-52
2021/12/21 03:00:02;;;;;;;7.85;4.32;;;;;;;;;;5024436;28;20022;-51
2021/12/21 03:02:30;;;;;;;12.38;4.97;;;;;;;;;;5036960;28;20048;-54
2021/12/21 03:04:56;;;;;;;8.52;3.75;;;;;;;;;;5031978;28;20084;-54
2021/12/21 03:10:01;;;;;;;12.80;4.78;;;;;;;;;;5032671;28;20067;-53
2021/12/21 03:13:51;;;;;;;10.38;4.57;;;;;;;;;;5034486;28;20021;-55
2021/12/21 03:15:13;;;;;;;14.50;4.93;;;;;;;;;;5029910;28;20037;-51
2021/12/21 03:17:39;;;;;;;11.10;4.03;;;;;;;;;;5034173;28;20075;-54
2021/12/21 03:20:05;;;;;;;8.05;4.10;;;;;;;;;;5033470;28;20105;-52
2021/12/21 03:22:31;;;;;;;9.52;4.72;;;;;;;;;;5032086;28;20454;-53
2021/12/21 03:24:57;;;;;;;9.13;5.05;;;;;;;;;;5040648;28;20033;-51
2021/12/21 03:27:23;;;;;;;9.05;4.32;;;;;;;;;;5036333;28;20044;-55
2021/12/21 03:29:49;;;;;;;10.43;4.85;;;;;;;;;;5028230;28;20538;-51
2021/12/21 03:32:15;;;;;;;10.63;5.18;;;;;;;;;;5035824;28;20083;-54
2021/12/21 03:34:41;;;;;;;12.10;4.93;;;;;;;;;;5034614;28;20033;-52
2021/12/21 03:37:11;;;;;;;9.02;5.05;;;;;;;;;;5032756;28;20468;-50
2021/12/21 03:39:37;;;;;;;9.27;4.55;;;;;;;;;;5029595;28;20044;-53
2021/12/21 03:42:03;;;;;;;11.57;4.40;;;;;;;;;;5033175;28;20641;-53
2021/12/21 03:44:29;;;;;;;10.73;5.03;;;;;;;;;;5029184;28;20045;-52
2021/12/21 03:46:57;;;;;;;7.18;3.85;;;;;;;;;;5038808;28;20055;-56
2021/12/21 03:49:52;;;;;;;12.20;4.80;;;;;;;;;;5037665;28;20025;-54
2021/12/21 03:52:17;;;;;;;7.90;3.93;;;;;;;;;;5029313;28;20036;-54
2021/12/21 03:54:46;;;;;;;10.50;4.70;;;;;;;;;;5041854;28;20025;-51
2021/12/21 03:57:12;;;;;;;7.50;4.60;;;;;;;;;;5039207;28;20029;-51
2021/12/21 03:59:38;;;;;;;12.52;4.95;;;;;;;;;;5037729;28;20035;-56
2021/12/21 04:02:05;;;;;;;15.68;5.15;;;;;;;;;;5040943;28;20381;-56
2021/12/21 04:04:31;;;;;;;11.23;4.90;;;;;;;;;;5042565;28;20480;-56
2021/12/21 04:06:57;;;;;;;9.98;5.53;;;;;;;;;;5033896;28;20450;-55
2021/12/21 04:09:23;;;;;;;12.52;5.00;;;;;;;;;;5031941;28;20036;-56
2021/12/21 04:11:49;;;;;;;11.65;5.80;;;;;;;;;;5030906;28;20112;-53
2021/12/21 04:14:20;;;;;;;13.73;5.65;;;;;;;;;;5039904;28;20877;-55
2021/12/21 04:16:46;;;;;;;12.65;4.85;;;;;;;;;;5035020;28;20033;-56
2021/12/21 04:19:13;;;;;;;12.52;4.95;;;;;;;;;;5031211;28;20029;-56
2021/12/21 04:21:39;;;;;;;15.93;6.07;;;;;;;;;;5034958;28;20144;-55
2021/12/21 04:24:05;;;;;;;10.57;5.40;;;;;;;;;;5035226;28;20060;-55
2021/12/21 04:26:31;;;;;;;13.57;5.70;;;;;;;;;;5037496;28;20168;-55
2021/12/21 04:28:58;;;;;;;11.15;4.90;;;;;;;;;;5033531;28;20022;-53
2021/12/21 04:31:24;;;;;;;13.43;5.68;;;;;;;;;;5031180;28;20108;-51
2021/12/21 04:33:50;;;;;;;9.60;4.68;;;;;;;;;;5028819;28;20045;-50
2021/12/21 04:36:16;;;;;;;8.77;4.65;;;;;;;;;;5033346;28;20113;-51
2021/12/21 04:38:46;;;;;;;8.63;4.38;;;;;;;;;;5032820;28;20029;-51
2021/12/21 04:41:14;;;;;;;9.95;5.50;;;;;;;;;;5032752;28;20060;-51
2021/12/21 04:43:41;;;;;;;10.93;5.25;;;;;;;;;;5035044;28;20068;-53
2021/12/21 04:46:07;;;;;;;12.40;4.93;;;;;;;;;;5016621;28;20037;-50
2021/12/21 04:48:33;;;;;;;10.60;5.07;;;;;;;;;;5038708;28;20027;-51
2021/12/21 04:50:59;;;;;;;11.50;5.47;;;;;;;;;;5026326;28;20018;-53
2021/12/21 04:53:25;;;;;;;19.48;6.78;;;;;;;;;;5033711;28;20500;-51
2021/12/21 04:55:51;;;;;;;15.82;5.45;;;;;;;;;;5036162;28;20120;-51
2021/12/21 04:58:18;;;;;;;11.73;5.40;;;;;;;;;;5036100;28;20124;-52
2021/12/21 05:00:44;;;;;;;11.68;5.25;;;;;;;;;;5026360;28;20030;-50
2021/12/21 05:03:10;;;;;;;10.48;5.43;;;;;;;;;;5039285;28;20087;-56
2021/12/21 05:05:36;;;;;;;13.88;6.10;;;;;;;;;;5035423;28;20030;-56
2021/12/21 05:08:24;;;;;;;12.68;5.95;;;;;;;;;;5036749;28;20033;-56
2021/12/21 05:10:53;;;;;;;16.20;6.18;;;;;;;;;;5030432;28;20029;-55
2021/12/21 05:13:21;;;;;;;12.88;5.22;;;;;;;;;;5026539;28;20461;-56
2021/12/21 05:15:47;;;;;;;13.45;7.10;;;;;;;;;;5032075;28;20100;-54
2021/12/21 05:18:14;;;;;;;13.50;6.30;;;;;;;;;;5032778;28;20098;-55
2021/12/21 05:20:40;;;;;;;11.30;5.97;;;;;;;;;;5034333;28;20111;-56
2021/12/21 05:23:06;;;;;;;11.65;5.68;;;;;;;;;;5034856;28;20038;-55
2021/12/21 05:25:33;;;;;;;16.63;6.43;;;;;;;;;;5033720;28;20029;-56
2021/12/21 05:27:59;;;;;;;12.05;5.78;;;;;;;;;;5033994;28;20041;-50
2021/12/21 05:30:26;;;;;;;13.93;6.75;;;;;;;;;;5024529;28;20037;-54
2021/12/21 05:32:52;;;;;;;19.38;6.38;;;;;;;;;;5030443;28;20029;-52
2021/12/21 05:35:18;;;;;;;16.98;6.07;;;;;;;;;;5033169;28;20049;-53
2021/12/21 05:37:46;;;;;;;15.63;6.50;;;;;;;;;;5023652;28;20034;-50
2021/12/21 05:40:15;;;;;;;16.40;6.57;;;;;;;;;;5032547;28;20030;-50
2021/12/21 05:42:42;;;;;;;14.77;6.35;;;;;;;;;;5032038;28;20025;-53
2021/12/21 05:45:09;;;;;;;18.45;7.40;;;;;;;;;;5023581;28;20513;-51
2021/12/21 05:47:36;;;;;;;18.42;7.85;;;;;;;;;;5034053;28;20025;-51
2021/12/21 05:50:03;;;;;;;13.77;6.88;;;;;;;;;;5032814;28;20040;-55
2021/12/21 05:52:29;;;;;;;16.20;7.13;;;;;;;;;;5029956;28;20053;-53
2021/12/21 05:54:55;;;;;;;16.08;6.82;;;;;;;;;;5038846;28;20492;-54
2021/12/21 05:57:21;;;;;;;17.33;6.50;;;;;;;;;;5028762;28;20040;-52
2021/12/21 05:59:47;;;;;;;20.08;6.78;;;;;;;;;;5032090;28;20790;-54
2021/12/21 06:02:13;;;;;;;19.67;7.38;;;;;;;;;;5030271;28;20025;-52
2021/12/21 06:04:39;;;;;;;12.30;6.68;;;;;;;;;;5028018;28;20044;-57
2021/12/21 06:07:05;;;;;;;12.70;7.05;;;;;;;;;;5028809;28;20417;-53
2021/12/21 06:09:32;;;;;;;13.98;6.85;;;;;;;;;;5036900;28;20462;-53
2021/12/21 06:12:14;;;;;;;14.00;6.43;;;;;;;;;;5028376;28;20467;-53
2021/12/21 06:15:16;;;;;;;16.10;7.68;;;;;;;;;;5023523;28;20034;-54
2021/12/21 06:23:54;;;;;;;22.73;7.75;;;;;;;;;;5033384;28;20079;-51
2021/12/21 06:26:04;;;;;;;16.20;7.75;;;;;;;;;;5028040;28;20425;-53
2021/12/21 06:28:31;;;;;;;15.98;7.80;;;;;;;;;;5028659;28;20028;-55
2021/12/21 06:30:57;;;;;;;13.70;7.78;;;;;;;;;;5021654;28;20382;-51
2021/12/21 06:33:23;;;;;;;24.75;8.15;;;;;;;;;;5029121;28;20029;-51
2021/12/21 06:35:50;;;;;;;15.20;8.30;;;;;;;;;;5025712;28;20045;-54
2021/12/21 06:38:16;;;;;;;19.23;8.15;;;;;;;;;;5022909;28;20634;-55
2021/12/21 06:40:42;;;;;;;16.60;7.45;;;;;;;;;;5021665;28;20057;-52
2021/12/21 06:43:12;;;;;;;18.10;7.22;;;;;;;;;;5028455;28;20056;-53
2021/12/21 06:53:35;;;;;;;17.67;7.97;;;;;;;;;;5033649;28;20033;-54
2021/12/21 06:56:01;;;;;;;21.17;8.30;;;;;;;;;;5031935;28;20058;-53
2021/12/21 06:58:27;;;;;;;19.67;8.05;;;;;;;;;;5025149;28;20057;-54
2021/12/21 07:00:54;;;;;;;21.55;8.18;;;;;;;;;;5033078;28;20041;-54
2021/12/21 07:03:20;;;;;;;15.90;7.82;;;;;;;;;;5034781;28;20033;-54
2021/12/21 07:05:47;;;;;;;15.95;7.80;;;;;;;;;;5028605;28;20045;-52
2021/12/21 07:08:16;;;;;;;21.45;8.30;;;;;;;;;;5029692;28;20029;-51
2021/12/21 07:10:52;;;;;;;17.15;8.18;;;;;;;;;;5031306;28;20026;-52
2021/12/21 07:18:48;;;;;;;19.23;8.50;;;;;;;;;;5029292;28;20052;-56
2021/12/21 07:21:14;;;;;;;16.00;8.23;;;;;;;;;;5030388;28;20477;-55
2021/12/21 07:23:40;;;;;;;27.40;8.45;;;;;;;;;;5030818;28;20029;-53
2021/12/21 07:26:07;;;;;;;18.13;8.60;;;;;;;;;;5034917;28;20026;-52
2021/12/21 07:28:33;;;;;;;19.20;7.55;;;;;;;;;;5034878;28;20450;-56
2021/12/21 07:30:59;;;;;;;22.55;8.05;;;;;;;;;;5032314;28;20026;-52
2021/12/21 07:33:25;;;;;;;17.90;7.75;;;;;;;;;;5029015;28;20052;-53
2021/12/21 07:35:51;;;;;;;14.75;7.38;;;;;;;;;;5027243;28;20033;-55
2021/12/21 07:38:19;;;;;;;20.00;7.85;;;;;;;;;;5034055;28;20573;-57
2021/12/21 07:40:45;;;;;;;23.02;8.10;;;;;;;;;;5031501;28;20029;-57
2021/12/21 07:43:11;;;;;;;15.02;7.65;;;;;;;;;;5025015;28;20021;-55
2021/12/21 07:45:37;;;;;;;14.95;7.10;;;;;;;;;;5028955;28;20112;-55
2021/12/21 07:48:03;;;;;;;15.38;6.90;;;;;;;;;;5024787;28;20565;-56
2021/12/21 07:50:29;;;;;;;15.65;7.40;;;;;;;;;;5027923;28;20037;-55
2021/12/21 07:52:57;;;;;;;18.25;7.28;;;;;;;;;;5029319;28;20541;-56
2021/12/21 07:55:23;;;;;;;16.60;7.03;;;;;;;;;;5023826;28;20489;-54
2021/12/21 07:57:49;;;;;;;13.98;6.47;;;;;;;;;;5028528;28;20057;-55
2021/12/21 08:00:15;;;;;;;13.00;6.03;;;;;;;;;;5026489;28;20037;-57
2021/12/21 08:02:42;;;;;;;16.25;6.10;;;;;;;;;;5026847;28;20030;-51
2021/12/21 08:05:09;;;;;;;27.48;14.48;;;;;;;;;;5029796;28;20037;-51
2021/12/21 08:07:43;;;;;;;17.60;7.30;;;;;;;;;;5023932;28;20026;-55
2021/12/21 08:10:20;;;;;;;14.25;6.15;;;;;;;;;;5032380;28;20029;-53
2021/12/21 08:12:46;;;;;;;10.38;5.03;;;;;;;;;;5022936;28;20030;-55
2021/12/21 08:15:12;;;;;;;12.43;5.60;;;;;;;;;;5019320;28;20057;-51
2021/12/21 08:17:38;;;;;;;12.35;5.45;;;;;;;;;;5027171;28;20575;-52
2021/12/21 08:20:04;;;;;;;13.85;5.00;;;;;;;;;;5029251;28;20146;-51
2021/12/21 08:22:30;;;;;;;12.35;5.60;;;;;;;;;;5028312;28;20029;-51
2021/12/21 08:24:56;;;;;;;13.23;6.00;;;;;;;;;;5026966;28;20053;-50
2021/12/21 08:27:22;;;;;;;11.10;5.13;;;;;;;;;;5016864;28;20360;-54
2021/12/21 08:29:48;;;;;;;9.63;4.75;;;;;;;;;;5029837;28;20025;-52
2021/12/21 08:32:14;;;;;;;12.15;5.68;;;;;;;;;;5029324;28;20022;-56
2021/12/21 08:34:40;;;;;;;13.38;6.05;;;;;;;;;;5030832;28;20076;-54
2021/12/21 08:37:07;;;;;;;11.40;5.13;;;;;;;;;;5030264;28;20079;-55
2021/12/21 08:39:39;;;;;;;11.15;5.57;;;;;;;;;;5030061;28;20033;-51
2021/12/21 08:42:06;;;;;;;11.32;5.38;;;;;;;;;;5025098;28;20038;-54
2021/12/21 08:44:32;;;;;;;10.00;5.20;;;;;;;;;;5025841;28;20064;-54
2021/12/21 08:46:58;;;;;;;11.68;5.88;;;;;;;;;;5028814;28;20049;-55
2021/12/21 08:49:25;;;;;;;9.65;5.38;;;;;;;;;;5028790;28;20025;-57
2021/12/21 08:51:51;;;;;;;9.73;4.72;;;;;;;;;;5027925;28;20029;-56
2021/12/21 08:54:17;;;;;;;13.48;6.30;;;;;;;;;;5026802;28;20032;-54
2021/12/21 08:56:44;;;;;;;19.00;8.52;;;;;;;;;;5027776;28;20562;-56
2021/12/21 08:59:12;;;;;;;13.70;5.80;;;;;;;;;;5032475;28;20036;-55
2021/12/21 09:01:38;;;;;;;13.98;5.57;;;;;;;;;;5022605;28;20033;-51
2021/12/21 09:04:04;;;;;;;12.57;5.90;;;;;;;;;;5032568;28;20106;-56
2021/12/21 09:06:30;;;;;;;14.65;6.75;;;;;;;;;;5025747;28;20025;-55
2021/12/21 09:08:56;;;;;;;13.65;5.65;;;;;;;;;;5040214;28;20135;-54
2021/12/21 09:11:22;;;;;;;15.40;5.82;;;;;;;;;;5029167;28;20021;-55
2021/12/21 09:13:48;;;;;;;15.48;6.60;;;;;;;;;;5025621;28;20109;-57
2021/12/21 09:16:14;;;;;;;15.52;6.35;;;;;;;;;;5024806;28;20022;-57
2021/12/21 09:18:40;;;;;;;13.35;5.88;;;;;;;;;;5028505;28;20689;-51
2021/12/21 09:21:06;;;;;;;10.68;5.78;;;;;;;;;;5024140;28;20037;-55
2021/12/21 09:23:32;;;;;;;11.38;5.95;;;;;;;;;;5024138;28;20109;-53
2021/12/21 09:25:58;;;;;;;12.23;5.78;;;;;;;;;;5028533;28;20269;-52
2021/12/21 09:28:24;;;;;;;13.07;6.03;;;;;;;;;;5035966;28;20470;-54
2021/12/21 09:30:50;;;;;;;14.55;6.45;;;;;;;;;;5031312;28;20040;-55
2021/12/21 09:33:16;;;;;;;16.10;6.55;;;;;;;;;;5029651;28;20041;-54
2021/12/21 09:35:43;;;;;;;14.43;7.03;;;;;;;;;;5030407;28;20049;-53
2021/12/21 09:38:09;;;;;;;18.77;8.02;;;;;;;;;;5020506;28;20493;-52
2021/12/21 09:40:39;;;;;;;22.23;9.30;;;;;;;;;;5025611;28;20410;-51
2021/12/21 09:43:05;;;;;;;22.58;8.30;;;;;;;;;;5031079;28;20025;-55
2021/12/21 09:45:31;;;;;;;17.25;7.68;;;;;;;;;;5022543;28;20420;-51
2021/12/21 09:47:57;;;;;;;20.35;8.35;;;;;;;;;;5021842;28;20026;-57
2021/12/21 09:50:25;;;;;;;15.73;7.53;;;;;;;;;;5022737;28;20097;-56
2021/12/21 09:52:52;;;;;;;18.65;7.93;;;;;;;;;;5031293;28;20025;-54
2021/12/21 09:55:21;;;;;;;17.30;8.00;;;;;;;;;;5031507;28;20037;-55
2021/12/21 09:57:48;;;;;;;17.63;7.53;;;;;;;;;;5029496;28;20488;-56
2021/12/21 10:00:23;;;;;;;17.92;7.22;;;;;;;;;;5029896;28;20026;-55
2021/12/21 10:02:49;;;;;;;15.90;8.18;;;;;;;;;;5030576;28;20056;-53
2021/12/21 10:05:18;;;;;;;20.48;9.23;;;;;;;;;;5026012;28;20116;-56
2021/12/21 10:07:55;;;;;;;20.00;9.07;;;;;;;;;;5027022;28;20037;-57
2021/12/21 10:10:21;;;;;;;23.70;9.35;;;;;;;;;;5024769;28;20361;-56
2021/12/21 10:12:47;;;;;;;25.55;9.90;;;;;;;;;;5027777;28;20725;-56
2021/12/21 10:15:17;;;;;;;22.20;10.40;;;;;;;;;;5030295;28;20743;-54
2021/12/21 10:17:53;;;;;;;22.48;9.52;;;;;;;;;;5030042;28;20404;-51
2021/12/21 10:20:33;;;;;;;27.80;10.57;;;;;;;;;;5022819;28;20715;-56
2021/12/21 10:22:59;;;;;;;21.63;10.25;;;;;;;;;;5023125;28;20036;-56
2021/12/21 10:25:25;;;;;;;25.92;10.35;;;;;;;;;;5026659;28;20018;-52
2021/12/21 10:27:51;;;;;;;25.00;10.50;;;;;;;;;;5030493;28;20029;-57
2021/12/21 10:30:17;;;;;;;30.20;10.68;;;;;;;;;;5031852;28;20029;-56
2021/12/21 10:32:51;;;;;;;26.13;10.10;;;;;;;;;;5025050;28;20029;-55
2021/12/21 10:35:17;;;;;;;24.35;10.00;;;;;;;;;;5030355;28;20030;-54
2021/12/21 10:37:44;;;;;;;20.42;8.55;;;;;;;;;;5028841;28;20115;-56
2021/12/21 10:40:12;;;;;;;21.60;9.13;;;;;;;;;;5029908;28;20040;-55
2021/12/21 10:42:49;;;;;;;25.65;9.52;;;;;;;;;;5027649;28;20033;-52
2021/12/21 10:45:15;;;;;;;24.38;9.70;;;;;;;;;;5031329;28;20067;-56
2021/12/21 10:47:43;;;;;;;22.67;9.73;;;;;;;;;;5030530;28;20065;-51
2021/12/21 10:50:09;;;;;;;21.67;10.02;;;;;;;;;;5023234;28;20026;-53
2021/12/21 10:52:35;;;;;;;20.70;9.50;;;;;;;;;;5031177;28;20029;-55
2021/12/21 10:55:04;;;;;;;20.85;9.70;;;;;;;;;;5037546;28;20152;-56
2021/12/21 10:57:32;;;;;;;23.13;11.85;;;;;;;;;;5019873;28;20406;-54
2021/12/21 10:59:59;;;;;;;23.40;9.13;;;;;;;;;;5029186;28;20036;-53
2021/12/21 11:02:31;;;;;;;24.83;9.10;;;;;;;;;;5030929;28;20045;-56
2021/12/21 11:05:02;;;;;;;26.00;11.60;;;;;;;;;;5027578;28;20029;-52
2021/12/21 11:07:37;;;;;;;27.85;10.10;;;;;;;;;;5026525;28;20645;-56
2021/12/21 11:10:14;;;;;;;22.60;9.57;;;;;;;;;;5029603;28;20060;-52
2021/12/21 11:12:46;;;;;;;28.10;9.52;;;;;;;;;;5026497;28;20034;-55
2021/12/21 11:15:16;;;;;;;22.05;9.23;;;;;;;;;;5024719;28;20378;-52
2021/12/21 11:17:42;;;;;;;25.73;10.38;;;;;;;;;;5029952;28;20116;-55
2021/12/21 11:20:09;;;;;;;22.83;9.32;;;;;;;;;;5031558;28;20033;-51
2021/12/21 11:22:37;;;;;;;21.17;8.98;;;;;;;;;;5026536;28;20034;-56
2021/12/21 11:25:04;;;;;;;19.30;9.32;;;;;;;;;;5026036;28;20108;-51
2021/12/21 11:27:31;;;;;;;26.23;8.50;;;;;;;;;;5031769;28;20021;-52
2021/12/21 11:30:01;;;;;;;20.80;9.80;;;;;;;;;;5030136;28;20047;-51
2021/12/21 11:32:29;;;;;;;23.52;9.95;;;;;;;;;;5030911;28;20025;-56
2021/12/21 11:37:37;;;;;;;26.73;9.65;;;;;;;;;;5030209;28;20041;-56
2021/12/21 11:40:04;;;;;;;19.33;8.55;;;;;;;;;;5032886;28;20033;-53
2021/12/21 11:42:34;;;;;;;20.02;8.25;;;;;;;;;;5034021;28;20108;-52
2021/12/21 11:45:03;;;;;;;18.55;8.88;;;;;;;;;;5034346;28;20029;-54
2021/12/21 11:47:35;;;;;;;23.27;10.07;;;;;;;;;;5034233;28;20104;-57
2021/12/21 11:50:04;;;;;;;27.42;10.55;;;;;;;;;;5032013;28;20148;-57
2021/12/21 11:52:31;;;;;;;19.17;8.77;;;;;;;;;;5023726;28;20112;-57
2021/12/21 11:55:07;;;;;;;26.05;9.48;;;;;;;;;;5030825;28;20033;-56
2021/12/21 11:57:38;;;;;;;21.77;8.95;;;;;;;;;;5028409;28;20025;-56
2021/12/21 12:00:06;;;;;;;28.63;10.38;;;;;;;;;;5025272;28;20021;-55
2021/12/21 12:02:33;;;;;;;27.10;9.07;;;;;;;;;;5034149;28;20176;-56
2021/12/21 12:04:59;;;;;;;21.73;9.05;;;;;;;;;;5026877;28;20458;-56
2021/12/21 12:07:25;;;;;;;27.02;10.10;;;;;;;;;;5031921;28;20040;-56
2021/12/21 12:10:08;;;;;;;19.08;8.82;;;;;;;;;;5026299;28;20021;-56
2021/12/21 12:12:34;;;;;;;23.52;8.95;;;;;;;;;;5021842;28;20388;-54
2021/12/21 12:15:01;;;;;;;28.00;8.93;;;;;;;;;;5034049;28;20040;-54
2021/12/21 12:17:28;;;;;;;23.58;9.10;;;;;;;;;;5032910;28;20038;-56
2021/12/21 12:19:57;;;;;;;22.83;9.35;;;;;;;;;;5033994;28;20025;-51
2021/12/21 12:22:37;;;;;;;17.70;8.20;;;;;;;;;;5033638;28;20075;-51
2021/12/21 12:25:04;;;;;;;20.63;7.72;;;;;;;;;;5028377;28;20026;-52
2021/12/21 12:27:31;;;;;;;21.63;8.60;;;;;;;;;;5027415;28;20083;-53
2021/12/21 12:29:58;;;;;;;33.13;10.40;;;;;;;;;;5030711;28;20080;-51
2021/12/21 12:32:44;;;;;;;18.42;7.95;;;;;;;;;;5031819;28;20446;-51
2021/12/21 12:35:12;;;;;;;19.35;8.55;;;;;;;;;;5028509;28;20037;-55
2021/12/21 12:37:52;;;;;;;23.20;8.75;;;;;;;;;;5022392;28;20037;-54
2021/12/21 12:40:19;;;;;;;21.67;9.07;;;;;;;;;;5026767;28;20438;-56
2021/12/21 12:43:05;;;;;;;19.98;8.50;;;;;;;;;;5022915;28;20033;-54
2021/12/21 12:45:51;;;;;;;19.35;8.27;;;;;;;;;;5022030;28;20026;-56
2021/12/21 12:48:30;;;;;;;20.15;8.18;;;;;;;;;;5022830;28;20038;-56
2021/12/21 12:50:57;;;;;;;22.48;8.88;;;;;;;;;;5026996;28;20417;-57
2021/12/21 12:53:34;;;;;;;25.95;8.93;;;;;;;;;;5027642;28;20033;-54
2021/12/21 12:56:00;;;;;;;18.40;7.95;;;;;;;;;;5029139;28;20578;-57
2021/12/21 12:58:27;;;;;;;19.80;7.82;;;;;;;;;;5029168;28;20060;-54
2021/12/21 13:01:02;;;;;;;20.85;7.30;;;;;;;;;;5034138;28;20084;-56
2021/12/21 13:03:32;;;;;;;17.00;7.43;;;;;;;;;;5030568;28;20076;-55
2021/12/21 13:05:59;;;;;;;15.90;7.38;;;;;;;;;;5039134;28;20440;-55
2021/12/21 13:08:29;;;;;;;19.80;8.43;;;;;;;;;;5027920;28;20788;-55
2021/12/21 13:10:57;;;;;;;19.00;8.30;;;;;;;;;;5032626;28;20393;-56
2021/12/21 13:13:37;;;;;;;15.30;7.68;;;;;;;;;;5033465;28;20060;-56
2021/12/21 13:16:10;;;;;;;16.17;7.85;;;;;;;;;;5036516;28;20056;-56
2021/12/21 13:18:47;;;;;;;18.13;7.47;;;;;;;;;;5039138;28;20497;-54
2021/12/21 13:21:20;;;;;;;19.23;9.07;;;;;;;;;;5032257;28;20087;-56
2021/12/21 13:23:49;;;;;;;18.40;8.00;;;;;;;;;;5023612;28;20085;-57
2021/12/21 13:26:16;;;;;;;15.43;7.65;;;;;;;;;;5022426;28;20022;-56
2021/12/21 13:28:46;;;;;;;17.15;7.88;;;;;;;;;;5028209;28;20037;-55
2021/12/21 13:31:15;;;;;;;18.67;7.68;;;;;;;;;;5026369;28;20034;-52
2021/12/21 13:33:41;;;;;;;18.30;7.95;;;;;;;;;;5032131;28;20494;-52
2021/12/21 13:36:08;;;;;;;24.50;8.73;;;;;;;;;;5033927;28;20056;-55
2021/12/21 13:38:35;;;;;;;18.98;8.57;;;;;;;;;;5031710;28;20096;-53
2021/12/21 13:41:01;;;;;;;18.83;8.48;;;;;;;;;;5027367;28;20029;-57
2021/12/21 13:43:27;;;;;;;21.52;8.70;;;;;;;;;;5032807;28;20075;-55
2021/12/21 13:45:57;;;;;;;21.92;8.90;;;;;;;;;;5023873;28;20116;-54
2021/12/21 13:48:23;;;;;;;17.30;7.78;;;;;;;;;;5028410;28;20049;-54
2021/12/21 13:50:49;;;;;;;19.40;7.70;;;;;;;;;;5022568;28;20458;-55
2021/12/21 13:53:18;;;;;;;18.45;7.93;;;;;;;;;;5029634;28;20036;-55
2021/12/21 13:55:44;;;;;;;18.58;8.13;;;;;;;;;;5031917;28;20056;-54
2021/12/21 13:58:12;;;;;;;19.75;7.88;;;;;;;;;;5027636;28;20013;-53
2021/12/21 14:00:42;;;;;;;19.90;8.23;;;;;;;;;;5033589;28;20473;-52
2021/12/21 14:06:01;;;;;;;15.98;7.25;;;;;;;;;;5035659;28;20110;-54
2021/12/21 14:08:27;;;;;;;19.00;8.02;;;;;;;;;;5018138;28;20030;-52
2021/12/21 14:10:55;;;;;;;17.75;8.55;;;;;;;;;;5040960;28;20462;-53
2021/12/21 14:13:31;;;;;;;19.70;7.97;;;;;;;;;;5031769;28;20711;-53
2021/12/21 14:15:58;;;;;;;15.65;8.48;;;;;;;;;;5033122;28;20029;-56
2021/12/21 14:18:30;;;;;;;16.77;8.43;;;;;;;;;;5040209;28;20151;-51
2021/12/21 14:21:01;;;;;;;16.03;7.10;;;;;;;;;;5042229;28;20029;-56
2021/12/21 14:23:28;;;;;;;16.13;7.50;;;;;;;;;;5037596;28;20279;-54
2021/12/21 14:26:04;;;;;;;19.05;7.82;;;;;;;;;;5036011;28;20030;-52
2021/12/21 14:28:30;;;;;;;19.13;8.50;;;;;;;;;;5034575;28;20152;-51
2021/12/21 14:31:03;;;;;;;18.42;8.65;;;;;;;;;;5028396;28;20484;-53
2021/12/21 14:33:44;;;;;;;17.73;8.63;;;;;;;;;;5028958;28;20045;-56
2021/12/21 14:36:13;;;;;;;18.58;8.05;;;;;;;;;;5034201;28;20033;-55
2021/12/21 14:38:49;;;;;;;18.83;8.52;;;;;;;;;;5034046;28;20126;-55
2021/12/21 14:41:19;;;;;;;16.90;7.32;;;;;;;;;;5034936;28;20489;-53
2021/12/21 14:43:45;;;;;;;19.05;7.22;;;;;;;;;;5023771;28;20045;-53
2021/12/21 14:46:18;;;;;;;18.42;7.70;;;;;;;;;;5037766;28;20355;-52
2021/12/21 14:48:47;;;;;;;19.00;8.23;;;;;;;;;;5035549;28;20097;-55
2021/12/21 14:51:14;;;;;;;22.20;9.23;;;;;;;;;;5037535;28;20031;-51
2021/12/21 14:53:49;;;;;;;21.63;8.45;;;;;;;;;;5036534;28;20025;-52
2021/12/21 14:56:28;;;;;;;17.65;8.88;;;;;;;;;;5036451;28;20030;-57
2021/12/21 14:59:08;;;;;;;17.98;8.18;;;;;;;;;;5039225;28;20782;-56
2021/12/21 15:01:48;;;;;;;20.45;8.57;;;;;;;;;;5031213;28;20031;-56
2021/12/21 15:04:16;;;;;;;17.85;7.45;;;;;;;;;;5035286;28;20465;-56
2021/12/21 15:06:42;;;;;;;23.35;7.97;;;;;;;;;;5036934;28;20358;-56
2021/12/21 15:09:08;;;;;;;22.67;8.57;;;;;;;;;;5035645;28;20036;-55
2021/12/21 15:11:34;;;;;;;19.70;8.80;;;;;;;;;;5047438;28;20014;-51
2021/12/21 15:14:00;;;;;;;19.10;8.35;;;;;;;;;;5043573;28;20107;-55
2021/12/21 15:16:26;;;;;;;23.30;8.82;;;;;;;;;;5049925;28;20030;-52
2021/12/21 15:18:52;;;;;;;21.60;8.98;;;;;;;;;;5036889;28;20108;-54
2021/12/21 15:21:18;;;;;;;23.05;8.70;;;;;;;;;;5048084;28;20036;-54
2021/12/21 15:23:44;;;;;;;21.70;8.35;;;;;;;;;;5035248;28;20104;-54
2021/12/21 15:26:10;;;;;;;20.63;9.20;;;;;;;;;;5028147;28;20029;-56
2021/12/21 15:28:36;;;;;;;20.05;8.40;;;;;;;;;;5029851;28;20033;-56
2021/12/21 15:31:01;;;;;;;18.38;8.52;;;;;;;;;;5028105;28;20493;-56